Airfield :
LOGIN :

Register | Disclaimer

   EN    FR    IT 

 










Legend :    VFR   Marginal VFR   IFR   Intensive IFR   Very Intensive IFR
Visi :
Ceiling :
>= 8 km
>= 3000ft
5 to 8 km
1000 to 3000 ft
1500m to 5 km
500 to 1000 ft
800 to 1500m
200 to 500 ft
< 800m
< 200 ft
Symbols :   Thunderstorms  Fog  Heavy snow  Heavy precipitations  Wind > 20 kt
SIGMETs :     Misc.  Thunderstorms  Icing  Turbulence  Mountain Waves  Volcanic Ashes






- Airport Elevation : 42 ft
- IATA code : CAL


EGEC - Campbeltown

CURRENT METAR :
  • 271220Z 26018KT 9999 SCT032 13/08 Q1000

EXPIRED METARs :
  • 271150Z 26022G32KT 9999 -SHRA SCT020 SCT025 13/09 Q1000
  • 271120Z 25019KT 9999 SCT027 13/09 Q1000
  • 271050Z 25015KT 9999 FEW019 13/10 Q1000
  • 271020Z 24015KT 9999 FEW013 13/09 Q0999
  • 270950Z 25014KT 9999 SCT013 12/10 Q0999

TAF TAF EGEC
Valid from the 27 at 12:00 until the 27 at 17:00 UTC


271103Z 2712/2717 24012KT 9999 FEW030
TEMPO 2712/2717 6000 SHRA
PROB30
TEMPO 2712/2717 25018G28KT 4000 +SHRA BKN014 BKN020CB



MET'MAP, your aeronautical weather chart ! - Copyright ORBIFLY December 2007 - Disclaimer

ORBIFLY MET'MAP TEAM :

Programming & Development : Alexandra Zaïnal
Concept & original design : Baudouin d'Aumeries
Assistance for programming : Marc-Olivier Méhu
Technical & hardware support : Manuel Goepfert

Contact : metmap@orbifly.com




SOURCES & CREDITS :

   NOAA